This demonstration page uses our WeatherBlox Daily Observations layout. Learn more.

Left ArrowRight Arrow

Hourly Observations for August 15, 2015

Temp ( °F °C ) Dew Point ( °F °C ) Humidity (%) Winds ( mph kmh ) Pressure ( in mb ) Visibility ( mi km ) Precip ( " mm )
12:54 am 00:54 Clear 70 21.1 66 18.9 87 87 S 6 9 30.11 1020 10 16.0934 0 0
1:54 am 01:54 Clear 68 20 65 18.3 90 90 S 7 11 30.1 1019 9 14.48406 0 0
2:54 am 02:54 Clear 67 19.4 64 17.8 91 91 S 5 7 30.09 1019 9 14.48406 0 0
3:54 am 03:54 Clear 68 20 64 17.8 87 87 SSE 3 6 30.09 1019 10 16.0934 0 0
4:54 am 04:54 Clear 67 19.4 63 17.2 87 87 SSE 5 7 30.1 1019 9 14.48406 0 0
5:54 am 05:54 Clear 65 18.3 62 16.7 90 90 SSE 5 7 30.1 1019 8 12.87472 0 0
6:54 am 06:54 Sunny 64 17.8 62 16.7 93 93 SSE 5 7 30.12 1020 7 11.26538 0 0
7:54 am 07:54 Sunny 68 20 65 18.3 90 90 S 6 9 30.13 1020 8 12.87472 0 0
8:54 am 08:54 Sunny 74 23.3 65 18.3 74 74 S 9 15 30.13 1020 9 14.48406 0 0
9:54 am 09:54 Sunny 80 26.7 64 17.8 58 58 S 10 17 30.11 1020 10 16.0934 0 0
10:54 am 10:54 Sunny 83 28.3 64 17.8 53 53 SSW 14 22 30.1 1019 10 16.0934 0 0
11:54 am 11:54 Sunny 86 30 66 18.9 51 51 SSW 12 19 30.09 1019 10 16.0934 0 0
12:54 pm 12:54 Sunny 88 31.1 66 18.9 48 48 SSW 15 24 30.07 1018 10 16.0934 0 0
1:54 pm 13:54 Sunny 90 32.2 64 17.8 42 42 S 18 30 30.04 1017 10 16.0934 0 0
2:54 pm 14:54 Sunny 90 32.2 65 18.3 44 44 S 16 26 30.03 1017 10 16.0934 0 0
3:54 pm 15:54 Sunny 91 32.8 63 17.2 39 39 S 21 33 30 1016 10 16.0934 0 0
4:54 pm 16:54 Sunny 90 32.2 62 16.7 39 39 S 20 31 29.99 1016 10 16.0934 0 0
5:54 pm 17:54 Sunny 90 32.2 62 16.7 39 39 S 14 22 29.97 1015 10 16.0934 0 0
6:54 pm 18:54 Sunny 88 31.1 63 17.2 43 43 S 13 20 29.97 1015 10 16.0934 0 0
7:54 pm 19:54 Sunny 84 28.9 63 17.2 49 49 S 12 19 29.97 1015 10 16.0934 0 0
8:54 pm 20:54 Clear 80 26.7 64 17.8 58 58 SSE 10 17 29.97 1015 10 16.0934 0 0
9:54 pm 21:54 Clear 77 25 65 18.3 66 66 S 12 19 29.98 1015 10 16.0934 0 0
10:54 pm 22:54 Clear 76 24.4 65 18.3 69 69 S 13 20 29.99 1016 10 16.0934 0 0
11:54 pm 23:54 Clear 76 24.4 64 17.8 67 67 S 15 24 30 1016 10 16.0934 0 0

Powered by AerisWeather